Accueil
METAR-TAF:

METAR-TAF

Aéroports :

Aéroport de Salalah

Salalah, Oman

latitude: 17-02N, longitude: 054-05E, altitude: 20 m

Observation

Le bulletin a été fait il y a 22 minutes, à 14:50 UTC
Vent 18 kt de nord
Température 26°C
Humidité 42%
Pression 1017 hPa
Visibilité 10 km ou plus
pas de nuages en-dessous de 1500 mètres et pas de cumulonimbus.

METAR: OOSA 261450Z 35018KT CAVOK 26/12 Q1017 NOSIG

Heure: 19:12 (15:12 UTC)

Prévision

Le bulletin a été fait il y a 3 heures et 32 minutes, à 11:40 UTC
Prévision valable du 26 à 12 UTC au 27 à 18 UTC
Vent 20 kt de nord avec des rafales jusqu'à 30 kt
Visibilité: 8000 m

TAF: OOSA 261140Z 2612/2718 36020G30KT 8000 NSC

Observations et prévisions météorologiques de plus de 4000 aéroports (messages METAR et TAF).

Les stations disponibles sont représentées par des disques jaunes et rouges sur la carte.

Passer la souris dessus pour voir le nom de la station.

Cliquer dessus pour voir les observations et prévisions météorologiques.

Pour changer de carte: cliquez sur les boutons verts avec une croix noire pour zoomer, sur le bouton vert avec un tiret pour effectuer un zoom arrière, ou sur les flèches vertes pour les cartes adjacentes.


METAR-TAF: